Weather reports worldwide

Advertisment
Tarvisio, Italy (16040): temperature & dewpoint: 11.07.2019 07:00:00 - 17.07.2019 07:00:00 (CEST)Tarvisio, Italy (16040): wind speed: 11.07.2019 07:00:00 - 17.07.2019 07:00:00 (CEST)Tarvisio, Italy (16040): wind direction: 11.07.2019 07:00:00 - 17.07.2019 07:00:00 (CEST)Tarvisio, Italy (16040): visibility: 11.07.2019 07:00:00 - 17.07.2019 07:00:00 (CEST)
Date & Time tt [°C] td [°C] ff [km/h] ff [kn] dd vv [km]
17.07.2019 07:00:00 - - - - - -
17.07.2019 06:00:00 - - - - - -
17.07.2019 05:00:00 - - - - - -
17.07.2019 04:00:00 - - - - - -
17.07.2019 03:00:00 - - - - - -
17.07.2019 02:00:00 - - - - - -
17.07.2019 01:00:00 - - - - - -
17.07.2019 00:00:00 - - - - - -
16.07.2019 23:00:00 - - - - - -
16.07.2019 22:00:00 - - - - - -
16.07.2019 21:00:00 - - - - - -
16.07.2019 20:00:00 20,4 9,6 0 0 N 15
16.07.2019 19:00:00 23,0 9,0 4 2 ENE 10
16.07.2019 18:00:00 24,0 9,0 5 3 ENE 10
16.07.2019 17:00:00 24,0 9,6 8 4 ESE 15
16.07.2019 16:00:00 24,0 9,0 5 3 NE 10
16.07.2019 15:00:00 23,0 9,0 4 2 ESE 10
16.07.2019 14:00:00 23,2 9,6 8 4 E 15
16.07.2019 13:00:00 22,0 9,0 5 3 ESE 10
16.07.2019 12:00:00 22,0 10,0 8 4 SE 10
16.07.2019 11:00:00 19,2 10,2 5 3 S 15
16.07.2019 10:00:00 17,0 11,0 9 5 SSE 10
16.07.2019 09:00:00 14,0 10,0 4 2 E 10
16.07.2019 08:00:00 10,6 9,4 0 0 N 15
16.07.2019 07:00:00 - - - - - -
16.07.2019 06:00:00 - - - - - -
16.07.2019 05:00:00 - - - - - -
16.07.2019 04:00:00 - - - - - -
16.07.2019 03:00:00 - - - - - -
16.07.2019 02:00:00 - - - - - -
16.07.2019 01:00:00 - - - - - -
16.07.2019 00:00:00 - - - - - -
15.07.2019 23:00:00 - - - - - -
15.07.2019 22:00:00 - - - - - -
15.07.2019 21:00:00 - - - - - -
15.07.2019 20:00:00 19,2 12,2 11 6 ENE 15
15.07.2019 19:00:00 20,0 12,0 5 3 E 10
15.07.2019 18:00:00 20,0 11,0 4 2 ESE 10
15.07.2019 17:00:00 21,0 11,1 8 4 E 15
15.07.2019 16:00:00 21,0 10,0 9 5 ESE 10
15.07.2019 15:00:00 21,0 10,0 11 6 E 10
15.07.2019 14:00:00 21,2 10,4 9 5 ESE 15
15.07.2019 13:00:00 20,0 11,0 11 6 E 10
15.07.2019 12:00:00 19,0 11,0 5 3 WSW 10
15.07.2019 11:00:00 18,4 11,0 9 5 E 10
15.07.2019 10:00:00 16,0 10,0 8 4 ENE 10
15.07.2019 09:00:00 14,0 11,0 2 1 S 10
15.07.2019 08:00:00 11,4 9,8 0 0 N 15
15.07.2019 07:00:00 - - - - - -
15.07.2019 06:00:00 - - - - - -
15.07.2019 05:00:00 - - - - - -
15.07.2019 04:00:00 - - - - - -
15.07.2019 03:00:00 - - - - - -
15.07.2019 02:00:00 - - - - - -
15.07.2019 01:00:00 - - - - - -
15.07.2019 00:00:00 - - - - - -
14.07.2019 23:00:00 - - - - - -
14.07.2019 22:00:00 - - - - - -
14.07.2019 21:00:00 - - - - - -
14.07.2019 20:00:00 16,8 13,0 2 1 WNW 15
14.07.2019 19:00:00 17,0 13,0 0 0 N 10
14.07.2019 18:00:00 18,0 13,0 4 2 S 10
14.07.2019 17:00:00 16,2 13,1 4 2 WSW 10
14.07.2019 16:00:00 17,0 12,0 167 90 WNW 8
14.07.2019 15:00:00 18,0 14,0 2 1 N 10
14.07.2019 14:00:00 21,2 9,1 2 1 S 15
14.07.2019 13:00:00 20,0 9,0 5 3 S 10
14.07.2019 12:00:00 19,0 9,0 4 2 WNW 10
14.07.2019 11:00:00 20,2 8,9 5 3 SE 10
14.07.2019 10:00:00 17,0 10,0 2 1 SSE 10
14.07.2019 09:00:00 13,0 8,0 0 0 N 10
14.07.2019 08:00:00 9,2 7,7 0 0 N 15
14.07.2019 07:00:00 - - - - - -
14.07.2019 06:00:00 - - - - - -
14.07.2019 05:00:00 - - - - - -
14.07.2019 04:00:00 - - - - - -
14.07.2019 03:00:00 - - - - - -
14.07.2019 02:00:00 - - - - - -
14.07.2019 01:00:00 - - - - - -
14.07.2019 00:00:00 - - - - - -
13.07.2019 23:00:00 - - - - - -
13.07.2019 22:00:00 - - - - - -
13.07.2019 21:00:00 - - - - - -
13.07.2019 20:00:00 18,0 7,4 4 2 E 10
13.07.2019 19:00:00 19,0 7,0 4 2 SE 10
13.07.2019 18:00:00 19,0 7,0 5 3 E 10
13.07.2019 17:00:00 20,8 9,1 5 3 E 10
13.07.2019 16:00:00 20,0 6,0 4 2 S 10
13.07.2019 15:00:00 22,0 8,0 8 4 ESE 10
13.07.2019 14:00:00 21,4 9,3 8 4 E 10
13.07.2019 13:00:00 20,0 10,0 2 1 E 10
13.07.2019 12:00:00 20,0 9,0 5 3 E 10
13.07.2019 11:00:00 19,2 11,3 8 4 E 10
13.07.2019 10:00:00 17,0 12,0 5 3 SW 10
13.07.2019 09:00:00 13,0 11,0 2 1 SSW 10
13.07.2019 08:00:00 12,0 10,4 0 0 N 10
13.07.2019 07:00:00 - - - - - -
13.07.2019 06:00:00 - - - - - -
13.07.2019 05:00:00 - - - - - -
13.07.2019 04:00:00 - - - - - -
13.07.2019 03:00:00 - - - - - -
13.07.2019 02:00:00 - - - - - -
13.07.2019 01:00:00 - - - - - -
13.07.2019 00:00:00 - - - - - -
12.07.2019 23:00:00 - - - - - -
12.07.2019 22:00:00 - - - - - -
12.07.2019 21:00:00 - - - - - -
12.07.2019 20:00:00 17,4 13,1 2 1 NW 10
12.07.2019 19:00:00 19,0 12,0 13 7 WNW 10
12.07.2019 18:00:00 19,0 10,0 8 4 WNW 10
12.07.2019 17:00:00 19,2 10,5 11 6 W 10
12.07.2019 16:00:00 21,0 12,0 5 3 S 10
12.07.2019 15:00:00 22,0 13,0 4 2 SSW 10
12.07.2019 14:00:00 20,8 12,0 2 1 ENE 12
12.07.2019 13:00:00 21,0 13,0 4 2 SE 10
12.07.2019 12:00:00 20,0 11,0 2 1 SE 10
12.07.2019 11:00:00 19,4 12,9 4 2 S 10
12.07.2019 10:00:00 - - - - - -
12.07.2019 09:00:00 16,0 12,0 0 0 N 10
12.07.2019 08:00:00 13,4 11,5 0 0 N 10
12.07.2019 07:00:00 - - - - - -
12.07.2019 06:00:00 - - - - - -
12.07.2019 05:00:00 - - - - - -
12.07.2019 04:00:00 - - - - - -
12.07.2019 03:00:00 - - - - - -
12.07.2019 02:00:00 - - - - - -
12.07.2019 01:00:00 - - - - - -
12.07.2019 00:00:00 - - - - - -
11.07.2019 23:00:00 - - - - - -
11.07.2019 22:00:00 - - - - - -
11.07.2019 21:00:00 - - - - - -
11.07.2019 20:00:00 16,8 12,7 11 6 W 10
11.07.2019 19:00:00 19,0 13,0 4 2 SW 10
11.07.2019 18:00:00 19,0 12,0 4 2 W 10
11.07.2019 17:00:00 19,8 12,6 9 5 WNW 15
11.07.2019 16:00:00 20,0 12,0 4 2 WSW 10
11.07.2019 15:00:00 20,0 11,0 11 6 S 10
11.07.2019 14:00:00 20,2 11,2 4 2 SSE 15
11.07.2019 13:00:00 20,0 11,0 4 2 E 10
11.07.2019 12:00:00 19,0 10,0 4 2 SE 10
11.07.2019 11:00:00 19,2 11,3 5 3 ESE 15
11.07.2019 10:00:00 16,0 10,0 4 2 SE 10
11.07.2019 09:00:00 13,0 9,0 0 0 N 10
11.07.2019 08:00:00 10,4 8,3 0 0 N 15
11.07.2019 07:00:00 - - - - - -

tt = temperature
td = dewpoint
ff = wind speed
dd = wind direction
vv = visibility

Next stations